This is the latest recevied weather packets stored in our database for station/object NR0A-4. If no packets are shown the sender has not sent any weather packets the latest 1 day(s).
| Time | Temp. | Humidity | Pressure | Rain* | Wind** | Luminosity | Snow |
|---|---|---|---|---|---|---|---|
| 1778093405 | 13.89° C | 31% | 1017.3 hPa | 0 mm | - | 947 W/m² | - |
| 1778091005 | 12.78° C | 31% | 1017.9 hPa | 0 mm | - | 230 W/m² | - |
| 1778089805 | 12.78° C | 32% | 1018.2 hPa | 0 mm | - | 199 W/m² | - |
| 1778089505 | 12.78° C | 33% | 1018.2 hPa | 0 mm | - | 1025 W/m² | - |
| 1778089205 | 12.78° C | 35% | 1018.2 hPa | 0 mm | - | 197 W/m² | - |
| 1778088905 | 12.22° C | 32% | 1018.2 hPa | 0 mm | - | 932 W/m² | - |
| 1778088605 | 12.78° C | 32% | 1018.3 hPa | 0 mm | - | 272 W/m² | - |
| 1778087405 | 12.78° C | 34% | 1018.4 hPa | 0 mm | - | 914 W/m² | - |
| 1778085605 | 12.22° C | 35% | 1018.8 hPa | 0 mm | - | 1028 W/m² | - |
| 1778085005 | 11.67° C | 38% | 1018.8 hPa | 0 mm | - | 991 W/m² | - |
| 1778084705 | 11.11° C | 36% | 1018.8 hPa | 0 mm | - | 202 W/m² | - |
| 1778084405 | 11.11° C | 35% | 1018.8 hPa | 0 mm | - | 469 W/m² | - |
| 1778083805 | 11.11° C | 35% | 1018.6 hPa | 0 mm | - | 158 W/m² | - |
| 1778081405 | 11.11° C | 38% | 1018.8 hPa | 0 mm | - | 700 W/m² | - |
| 1778080805 | 11.11° C | 37% | 1018.5 hPa | 0 mm | - | 656 W/m² | - |
| 1778080205 | 11.11° C | 41% | 1018.6 hPa | 0 mm | - | 624 W/m² | - |
| 1778079005 | 10.56° C | 41% | 1018.8 hPa | 0 mm | - | 573 W/m² | - |
| 1778078704 | 10.56° C | 41% | 1018.8 hPa | 0 mm | - | 557 W/m² | - |
| 1778078405 | 10.56° C | 42% | 1018.9 hPa | 0 mm | - | 547 W/m² | - |
| 1778075704 | 7.78° C | 48% | 1018.7 hPa | 0 mm | - | 410 W/m² | - |
| 1778071805 | 1.67° C | 70% | 1018.4 hPa | 0 mm | - | 37 W/m² | - |
| 1778070005 | 0° C | 70% | 1017.9 hPa | 0 mm | - | 26 W/m² | - |
| 1778067904 | -0.56° C | 72% | 1017.5 hPa | 0 mm | - | 14 W/m² | - |
| 1778067304 | -0.56° C | 72% | 1017.3 hPa | 0 mm | - | 11 W/m² | - |
| 1778067005 | -0.56° C | 72% | 1017.3 hPa | 0 mm | - | 9 W/m² | - |
* Rain latest hour (hover to see other rain measurements)
** Current wind speed in m/s (hover to see current wind gust speed)